createdAt,value
2019-05-25T00:01:56.989Z,8.38
2019-05-25T00:04:27.619Z,8.18
2019-05-25T00:06:58.259Z,8.23
2019-05-25T00:09:29.046Z,8.68
2019-05-25T00:11:59.595Z,7.28
2019-05-25T00:14:30.144Z,6.78
2019-05-25T00:17:00.694Z,6.87
2019-05-25T00:19:31.378Z,6.30
2019-05-25T00:22:01.928Z,7.08
2019-05-25T00:24:32.576Z,6.35
2019-05-25T00:27:03.404Z,6.30
2019-05-25T00:29:34.097Z,6.40
2019-05-25T00:32:04.794Z,6.85
2019-05-25T00:34:35.603Z,7.05
2019-05-25T00:37:06.662Z,6.95
2019-05-25T00:39:37.317Z,6.22
2019-05-25T00:42:07.929Z,6.72
2019-05-25T00:44:38.522Z,6.22
2019-05-25T00:47:09.084Z,6.87
2019-05-25T00:49:39.676Z,7.47
2019-05-25T00:52:10.388Z,7.90
2019-05-25T00:54:41.034Z,8.33
2019-05-25T00:57:11.737Z,8.73
2019-05-25T00:59:42.301Z,8.90
2019-05-25T01:02:12.993Z,8.78
2019-05-25T01:04:43.628Z,9.75
2019-05-25T01:07:14.242Z,8.98
2019-05-25T01:09:44.885Z,9.08
2019-05-25T01:12:15.564Z,9.40
2019-05-25T01:14:46.209Z,9.25
2019-05-25T01:17:16.887Z,9.15
2019-05-25T01:19:48.607Z,9.90
2019-05-25T01:22:20.812Z,8.48
2019-05-25T01:24:51.402Z,8.38
2019-05-25T01:27:22.105Z,8.05
2019-05-25T01:29:52.826Z,7.90
2019-05-25T01:32:23.363Z,8.73
2019-05-25T01:34:54.025Z,8.55
2019-05-25T01:37:24.948Z,8.75
2019-05-25T01:39:55.950Z,8.83
2019-05-25T01:42:26.619Z,8.23
2019-05-25T01:44:57.533Z,9.05
2019-05-25T01:47:28.270Z,8.73
2019-05-25T01:49:58.810Z,9.80
2019-05-25T01:52:29.761Z,9.10
2019-05-25T01:55:00.811Z,8.63
2019-05-25T01:57:31.866Z,9.38
2019-05-25T02:00:02.802Z,8.60
2019-05-25T02:02:33.973Z,8.68
2019-05-25T02:05:05.071Z,7.65
2019-05-25T02:07:36.231Z,8.15
2019-05-25T02:10:07.490Z,7.30
2019-05-25T02:12:38.080Z,7.95
2019-05-25T02:15:09.362Z,6.70
2019-05-25T02:17:39.975Z,7.00
2019-05-25T02:20:11.346Z,7.90
2019-05-25T02:22:42.029Z,6.10
2019-05-25T02:25:18.345Z,6.37
2019-05-25T02:27:45.423Z,5.87
2019-05-25T02:30:16.520Z,5.67
2019-05-25T02:32:47.144Z,6.05
2019-05-25T02:35:28.301Z,6.03
2019-05-25T02:37:59.429Z,6.25
2019-05-25T02:40:29.949Z,6.20
2019-05-25T02:43:00.782Z,6.72
2019-05-25T02:45:31.296Z,6.47
2019-05-25T02:48:01.841Z,6.58
2019-05-25T02:50:32.536Z,6.60
2019-05-25T02:53:03.717Z,7.17
2019-05-25T02:55:35.342Z,6.70
2019-05-25T02:58:06.240Z,6.75
2019-05-25T03:00:36.925Z,6.55
2019-05-25T03:03:07.575Z,6.37
2019-05-25T03:05:38.120Z,7.30
2019-05-25T03:08:08.725Z,7.12
2019-05-25T03:10:40.512Z,7.17
2019-05-25T03:13:11.292Z,7.05
2019-05-25T03:15:42.505Z,7.00
2019-05-25T03:18:13.177Z,7.15
2019-05-25T03:20:43.724Z,7.55
2019-05-25T03:23:14.693Z,7.12
2019-05-25T03:25:49.542Z,7.35
2019-05-25T03:28:17.941Z,7.58
2019-05-25T03:30:48.553Z,7.35
2019-05-25T03:33:19.186Z,7.60
2019-05-25T03:35:49.712Z,7.08
2019-05-25T03:38:20.572Z,7.60
2019-05-25T03:40:51.200Z,7.22
2019-05-25T03:43:21.769Z,7.85
2019-05-25T03:45:52.406Z,7.12
2019-05-25T03:48:22.940Z,7.53
2019-05-25T03:50:53.486Z,7.62
2019-05-25T03:53:25.240Z,8.50
2019-05-25T03:56:05.272Z,7.90
2019-05-25T03:58:28.288Z,7.60
2019-05-25T04:00:58.873Z,8.03
2019-05-25T04:03:29.440Z,8.90
2019-05-25T04:06:00.059Z,8.55
2019-05-25T04:08:30.603Z,8.35
2019-05-25T04:11:01.182Z,9.40
2019-05-25T04:13:31.812Z,8.60
2019-05-25T04:16:02.696Z,8.58
2019-05-25T04:18:33.397Z,8.40
2019-05-25T04:21:03.992Z,8.60
2019-05-25T04:23:34.690Z,8.48
2019-05-25T04:26:19.615Z,7.95
2019-05-25T04:28:38.060Z,7.92
2019-05-25T04:31:08.702Z,8.33
2019-05-25T04:33:39.473Z,8.53
2019-05-25T04:36:10.403Z,8.40
2019-05-25T04:38:41.386Z,8.20
2019-05-25T04:41:12.020Z,7.67
2019-05-25T04:43:42.862Z,7.12
2019-05-25T04:46:13.891Z,6.92
2019-05-25T04:48:44.587Z,6.95
2019-05-25T04:51:15.192Z,7.58
2019-05-25T04:53:46.199Z,7.12
2019-05-25T04:56:16.837Z,7.60
2019-05-25T04:58:47.495Z,7.87
2019-05-25T05:01:21.827Z,7.92
2019-05-25T05:03:52.405Z,8.18
2019-05-25T05:06:23.424Z,8.90
2019-05-25T05:08:54.133Z,8.15
2019-05-25T05:11:24.709Z,8.25
2019-05-25T05:13:56.750Z,8.90
2019-05-25T05:16:29.916Z,9.38
2019-05-25T05:19:00.682Z,8.78
2019-05-25T05:21:31.312Z,9.48
2019-05-25T05:24:02.371Z,9.73
2019-05-25T05:26:33.517Z,9.45
2019-05-25T05:29:04.338Z,9.80
2019-05-25T05:31:34.985Z,8.00
2019-05-25T05:34:05.818Z,9.65
2019-05-25T05:36:39.102Z,9.95
2019-05-25T05:39:12.834Z,10.93
2019-05-25T05:41:45.483Z,9.15
2019-05-25T05:44:17.604Z,9.88
2019-05-25T05:46:49.593Z,10.45
2019-05-25T05:49:21.437Z,10.15
2019-05-25T05:51:52.925Z,9.48
2019-05-25T05:54:23.824Z,9.65
2019-05-25T05:57:10.723Z,8.85
2019-05-25T05:59:26.702Z,9.05
2019-05-25T06:01:57.365Z,9.15
2019-05-25T06:04:27.964Z,10.18
2019-05-25T06:06:58.630Z,9.10
2019-05-25T06:09:29.215Z,8.33
2019-05-25T06:11:59.893Z,8.63
2019-05-25T06:14:30.574Z,8.58
2019-05-25T06:17:01.262Z,9.00
2019-05-25T06:19:31.903Z,7.90
2019-05-25T06:22:02.735Z,8.60
2019-05-25T06:24:34.696Z,7.42
2019-05-25T06:27:05.385Z,7.70
2019-05-25T06:29:35.955Z,7.70
2019-05-25T06:32:06.625Z,6.55
2019-05-25T06:34:37.402Z,7.12
2019-05-25T06:37:08.029Z,7.15
2019-05-25T06:39:39.304Z,7.20
2019-05-25T06:42:09.893Z,6.12
2019-05-25T06:44:40.993Z,6.45
2019-05-25T06:47:11.597Z,6.95
2019-05-25T06:49:42.241Z,7.05
2019-05-25T06:52:12.853Z,6.00
2019-05-25T06:54:42.836Z,6.05
2019-05-25T06:57:12.671Z,6.22
2019-05-25T06:59:43.135Z,5.37
2019-05-25T07:02:13.788Z,5.80
2019-05-25T07:04:43.686Z,5.10
2019-05-25T07:07:15.012Z,4.80
2019-05-25T07:09:44.895Z,4.90
2019-05-25T07:12:15.751Z,4.80
2019-05-25T07:14:48.298Z,4.90
2019-05-25T07:17:18.152Z,4.90
2019-05-25T07:19:47.949Z,4.92
2019-05-25T07:22:17.996Z,4.70
2019-05-25T07:24:49.755Z,4.67
2019-05-25T07:27:19.536Z,5.28
2019-05-25T07:29:49.762Z,5.72
2019-05-25T07:32:19.734Z,4.80
2019-05-25T07:34:49.630Z,5.67
2019-05-25T07:37:19.606Z,5.03
2019-05-25T07:39:49.462Z,5.78
2019-05-25T07:42:20.573Z,6.10
2019-05-25T07:44:50.621Z,5.90
2019-05-25T07:47:20.692Z,5.47
2019-05-25T07:49:50.516Z,5.45
2019-05-25T07:52:20.449Z,5.08
2019-05-25T07:54:50.734Z,4.95
2019-05-25T07:57:21.849Z,5.97
2019-05-25T07:59:51.717Z,5.37
2019-05-25T08:02:21.739Z,5.87
2019-05-25T08:04:51.809Z,5.33
2019-05-25T08:07:22.097Z,5.12
2019-05-25T08:09:51.891Z,5.55
2019-05-25T08:12:21.686Z,4.87
2019-05-25T08:14:51.525Z,4.45
2019-05-25T08:17:21.709Z,4.45
2019-05-25T08:19:51.573Z,4.22
2019-05-25T08:22:21.508Z,4.55
2019-05-25T08:24:51.461Z,4.55
2019-05-25T08:27:21.304Z,4.53
2019-05-25T08:29:51.174Z,4.70
2019-05-25T08:32:20.957Z,4.22
2019-05-25T08:34:50.833Z,4.10
2019-05-25T08:37:21.435Z,4.28
2019-05-25T08:39:51.333Z,4.00
2019-05-25T08:42:21.126Z,3.95
2019-05-25T08:44:51.146Z,3.60
2019-05-25T08:47:21.033Z,3.50
2019-05-25T08:49:51.030Z,3.58
2019-05-25T08:52:21.537Z,3.67
2019-05-25T08:54:51.559Z,3.33
2019-05-25T08:57:21.449Z,4.03
2019-05-25T08:59:51.244Z,4.87
2019-05-25T09:02:21.154Z,3.42
2019-05-25T09:04:51.747Z,3.65
2019-05-25T09:07:21.695Z,4.28
2019-05-25T09:09:52.378Z,4.10
2019-05-25T09:12:22.249Z,4.00
2019-05-25T09:14:52.051Z,3.35
2019-05-25T09:17:21.875Z,4.12
2019-05-25T09:19:51.825Z,3.58
2019-05-25T09:22:22.415Z,2.80
2019-05-25T09:24:53.059Z,3.20
2019-05-25T09:27:23.695Z,2.62
2019-05-25T09:29:54.739Z,2.60
2019-05-25T09:32:25.738Z,2.30
2019-05-25T09:34:56.409Z,2.40
2019-05-25T09:37:26.990Z,1.98
2019-05-25T09:39:56.906Z,1.95
2019-05-25T09:42:29.117Z,2.10
2019-05-25T09:44:59.260Z,1.98
2019-05-25T09:47:29.110Z,1.80
2019-05-25T09:49:58.987Z,1.57
2019-05-25T09:52:28.846Z,1.77
2019-05-25T09:54:59.290Z,2.25
2019-05-25T09:57:30.177Z,1.57
2019-05-25T10:00:00.721Z,1.80
2019-05-25T10:02:30.571Z,1.57
2019-05-25T10:05:00.399Z,1.42
2019-05-25T10:07:30.253Z,2.58
2019-05-25T10:10:00.163Z,1.20
2019-05-25T10:12:29.996Z,1.25
2019-05-25T10:14:59.797Z,1.00
2019-05-25T10:17:29.614Z,1.10
2019-05-25T10:20:00.422Z,0.90
2019-05-25T10:22:30.338Z,1.12
2019-05-25T10:25:00.198Z,1.50
2019-05-25T10:27:34.066Z,1.10
2019-05-25T10:30:02.027Z,1.10
2019-05-25T10:32:33.182Z,1.40
2019-05-25T10:35:03.066Z,1.32
2019-05-25T10:37:32.939Z,0.90
2019-05-25T10:40:04.443Z,0.95
2019-05-25T10:42:34.258Z,1.10
2019-05-25T10:45:04.608Z,0.93
2019-05-25T10:47:34.454Z,0.95
2019-05-25T10:50:05.030Z,0.90
2019-05-25T10:52:35.516Z,1.00
2019-05-25T10:55:06.154Z,0.90
2019-05-25T10:57:36.113Z,0.75
2019-05-25T11:00:06.168Z,0.90
2019-05-25T11:02:36.106Z,1.05
2019-05-25T11:05:06.126Z,1.90
2019-05-25T11:07:36.677Z,2.30
2019-05-25T11:10:07.978Z,1.57
2019-05-25T11:12:38.362Z,1.20
2019-05-25T11:15:08.560Z,1.40
2019-05-25T11:17:39.472Z,1.25
2019-05-25T11:20:09.982Z,1.10
2019-05-25T11:22:39.903Z,1.00
2019-05-25T11:25:10.094Z,1.15
2019-05-25T11:27:39.948Z,1.32
2019-05-25T11:30:10.433Z,1.10
2019-05-25T11:32:40.494Z,1.05
2019-05-25T11:35:10.378Z,2.58
2019-05-25T11:37:40.401Z,1.50
2019-05-25T11:40:11.074Z,1.20
2019-05-25T11:42:40.948Z,1.12
2019-05-25T11:45:11.142Z,1.40
2019-05-25T11:47:41.071Z,1.70
2019-05-25T11:50:11.312Z,1.42
2019-05-25T11:52:42.326Z,2.10
2019-05-25T11:55:12.396Z,1.60
2019-05-25T11:57:42.342Z,1.20
2019-05-25T12:00:24.249Z,1.02
2019-05-25T12:02:43.980Z,1.20
2019-05-25T12:05:13.829Z,1.20
2019-05-25T12:07:44.882Z,1.22
2019-05-25T12:10:15.328Z,1.45
2019-05-25T12:12:45.120Z,0.98
2019-05-25T12:15:16.297Z,1.30
2019-05-25T12:17:46.098Z,1.30
2019-05-25T12:20:16.960Z,1.20
2019-05-25T12:22:46.734Z,1.30
2019-05-25T12:25:16.635Z,1.27
2019-05-25T12:27:49.248Z,1.10
2019-05-25T12:30:20.452Z,1.10
2019-05-25T12:32:50.344Z,1.10
2019-05-25T12:35:20.155Z,1.42
2019-05-25T12:37:50.075Z,1.25
2019-05-25T12:40:19.950Z,1.27
2019-05-25T12:42:49.969Z,2.05
2019-05-25T12:45:19.719Z,1.52
2019-05-25T12:47:49.578Z,1.17
2019-05-25T12:50:21.847Z,0.93
2019-05-25T12:52:51.735Z,1.10
2019-05-25T12:55:22.957Z,1.07
2019-05-25T12:57:52.809Z,1.25
2019-05-25T13:00:22.610Z,1.30
2019-05-25T13:02:53.590Z,1.25
2019-05-25T13:05:33.848Z,1.30
2019-05-25T13:07:55.018Z,1.30
2019-05-25T13:10:24.807Z,1.20
2019-05-25T13:12:54.763Z,1.55
2019-05-25T13:15:24.603Z,1.00
2019-05-25T13:17:54.749Z,1.10
2019-05-25T13:20:24.610Z,0.80
2019-05-25T13:22:54.503Z,1.30
2019-05-25T13:25:24.372Z,1.40
2019-05-25T13:27:54.178Z,1.10
2019-05-25T13:30:25.253Z,1.40
2019-05-25T13:32:55.077Z,1.25
2019-05-25T13:35:24.944Z,1.50
2019-05-25T13:37:54.884Z,1.35
2019-05-25T13:40:24.808Z,1.27
2019-05-25T13:42:54.677Z,1.32
2019-05-25T13:45:24.498Z,1.40
2019-05-25T13:47:54.381Z,1.50
2019-05-25T13:50:24.337Z,1.65
2019-05-25T13:52:55.993Z,1.10
2019-05-25T13:55:26.860Z,2.98
2019-05-25T13:57:56.724Z,3.98
2019-05-25T14:00:26.593Z,3.20
2019-05-25T14:02:57.545Z,2.42
2019-05-25T14:05:27.431Z,5.22
2019-05-25T14:07:57.324Z,6.10
2019-05-25T14:10:27.397Z,3.47
2019-05-25T14:12:57.381Z,2.55
2019-05-25T14:15:27.341Z,1.57
2019-05-25T14:17:57.538Z,1.55
2019-05-25T14:20:27.383Z,1.47
2019-05-25T14:22:58.313Z,1.32
2019-05-25T14:25:28.448Z,1.52
2019-05-25T14:27:58.287Z,1.77
2019-05-25T14:30:28.771Z,1.30
2019-05-25T14:32:59.406Z,1.60
2019-05-25T14:35:29.417Z,1.67
2019-05-25T14:37:59.908Z,1.40
2019-05-25T14:40:30.582Z,1.75
2019-05-25T14:43:00.671Z,1.35
2019-05-25T14:45:35.492Z,2.62
2019-05-25T14:48:05.443Z,1.90
2019-05-25T14:50:35.276Z,1.27
2019-05-25T14:53:05.093Z,1.27
2019-05-25T14:55:35.288Z,1.35
2019-05-25T14:58:05.252Z,1.52
2019-05-25T15:00:35.447Z,1.10
2019-05-25T15:03:06.831Z,1.45
2019-05-25T15:05:36.837Z,1.50
2019-05-25T15:08:06.702Z,1.77
2019-05-25T15:10:36.536Z,1.60
2019-05-25T15:13:06.367Z,1.60
2019-05-25T15:15:37.337Z,1.85
2019-05-25T15:18:08.211Z,1.52
2019-05-25T15:20:38.008Z,1.60
2019-05-25T15:23:09.136Z,1.45
2019-05-25T15:25:39.082Z,1.40
2019-05-25T15:28:08.952Z,1.55
2019-05-25T15:30:38.816Z,1.45
2019-05-25T15:33:08.684Z,1.90
2019-05-25T15:35:38.598Z,1.95
2019-05-25T15:38:10.668Z,1.85
2019-05-25T15:40:41.240Z,1.60
2019-05-25T15:43:11.065Z,2.17
2019-05-25T15:45:41.620Z,1.50
2019-05-25T15:48:12.796Z,1.70
2019-05-25T15:50:43.340Z,1.87
2019-05-25T15:53:13.985Z,1.50
2019-05-25T15:55:44.713Z,1.60
2019-05-25T15:58:14.708Z,1.30
2019-05-25T16:00:45.569Z,1.40
2019-05-25T16:03:15.761Z,1.30
2019-05-25T16:05:47.608Z,1.05
2019-05-25T16:08:17.608Z,1.70
2019-05-25T16:10:47.473Z,1.80
2019-05-25T16:13:17.546Z,1.20
2019-05-25T16:15:48.220Z,1.40
2019-05-25T16:18:18.888Z,1.17
2019-05-25T16:20:50.239Z,1.20
2019-05-25T16:23:21.674Z,1.30
2019-05-25T16:25:51.582Z,1.10
2019-05-25T16:28:22.137Z,1.10
2019-05-25T16:30:52.813Z,1.45
2019-05-25T16:33:22.800Z,1.60
2019-05-25T16:35:52.781Z,1.40
2019-05-25T16:38:22.677Z,1.80
2019-05-25T16:40:52.573Z,1.95
2019-05-25T16:43:22.482Z,2.17
2019-05-25T16:45:52.317Z,1.90
2019-05-25T16:48:22.176Z,1.80
2019-05-25T16:50:52.241Z,1.45
2019-05-25T16:53:22.096Z,3.27
2019-05-25T16:55:54.525Z,2.20
2019-05-25T16:58:24.226Z,1.00
2019-05-25T17:00:54.872Z,1.10
2019-05-25T17:03:28.851Z,1.47
2019-05-25T17:05:57.733Z,1.42
2019-05-25T17:08:27.733Z,1.22
2019-05-25T17:10:57.646Z,1.52
2019-05-25T17:13:27.901Z,1.85
2019-05-25T17:15:57.738Z,1.40
2019-05-25T17:18:28.337Z,1.10
2019-05-25T17:20:59.017Z,1.50
2019-05-25T17:23:29.661Z,1.12
2019-05-25T17:26:00.480Z,1.10
2019-05-25T17:28:30.916Z,1.20
2019-05-25T17:31:01.558Z,1.32
2019-05-25T17:33:45.510Z,1.50
2019-05-25T17:36:04.626Z,1.35
2019-05-25T17:38:35.656Z,1.32
2019-05-25T17:41:06.330Z,1.92
2019-05-25T17:43:36.882Z,1.52
2019-05-25T17:46:08.232Z,1.70
2019-05-25T17:48:38.153Z,2.08
2019-05-25T17:51:09.925Z,1.70
2019-05-25T17:53:42.510Z,1.72
2019-05-25T17:56:15.044Z,2.08
2019-05-25T17:58:47.581Z,1.47
2019-05-25T18:01:18.250Z,1.50
2019-05-25T18:04:04.963Z,1.47
2019-05-25T18:06:21.224Z,1.57
2019-05-25T18:08:54.132Z,1.77
2019-05-25T18:11:24.911Z,2.55
2019-05-25T18:14:01.198Z,1.50
2019-05-25T18:16:31.803Z,1.70
2019-05-25T18:19:02.577Z,1.50
2019-05-25T18:21:33.724Z,1.45
2019-05-25T18:24:04.635Z,1.40
2019-05-25T18:26:35.902Z,1.30
2019-05-25T18:29:06.559Z,1.10
2019-05-25T18:31:37.123Z,1.12
2019-05-25T18:34:21.201Z,1.20
2019-05-25T18:36:40.739Z,1.70
2019-05-25T18:39:11.310Z,1.00
2019-05-25T18:41:42.317Z,1.40
2019-05-25T18:44:12.873Z,1.40
2019-05-25T18:46:42.894Z,1.60
2019-05-25T18:49:14.966Z,3.17
2019-05-25T18:51:45.649Z,1.60
2019-05-25T18:54:16.389Z,1.50
2019-05-25T18:56:47.094Z,1.55
2019-05-25T18:59:20.159Z,1.82
2019-05-25T19:01:50.936Z,1.67
2019-05-25T19:04:41.236Z,1.70
2019-05-25T19:06:53.784Z,1.67
2019-05-25T19:09:24.455Z,1.40
2019-05-25T19:11:55.258Z,2.00
2019-05-25T19:14:26.250Z,1.50
2019-05-25T19:16:56.834Z,1.60
2019-05-25T19:19:30.231Z,3.95
2019-05-25T19:22:00.950Z,1.80
2019-05-25T19:24:33.891Z,1.65
2019-05-25T19:27:04.608Z,1.65
2019-05-25T19:29:36.094Z,1.52
2019-05-25T19:32:06.708Z,1.55
2019-05-25T19:34:37.418Z,1.67
2019-05-25T19:37:08.108Z,2.60
2019-05-25T19:39:40.215Z,2.10
2019-05-25T19:42:10.884Z,1.82
2019-05-25T19:44:44.344Z,1.87
2019-05-25T19:47:14.952Z,1.50
2019-05-25T19:49:45.525Z,1.70
2019-05-25T19:52:16.384Z,2.30
2019-05-25T19:54:47.464Z,1.50
2019-05-25T19:57:18.134Z,1.52
2019-05-25T19:59:48.877Z,3.40
2019-05-25T20:02:20.643Z,11.48
2019-05-25T20:04:51.392Z,4.33
2019-05-25T20:07:23.701Z,1.35
2019-05-25T20:09:55.640Z,1.30
2019-05-25T20:12:26.400Z,1.75
2019-05-25T20:14:57.173Z,1.72
2019-05-25T20:17:30.783Z,2.05
2019-05-25T20:20:01.541Z,1.57
2019-05-25T20:22:33.550Z,1.22
2019-05-25T20:25:04.340Z,1.20
2019-05-25T20:27:35.028Z,1.00
2019-05-25T20:30:06.339Z,0.90
2019-05-25T20:32:37.025Z,0.93
2019-05-25T20:35:08.285Z,1.00
2019-05-25T20:37:38.924Z,1.20
2019-05-25T20:40:10.509Z,1.07
2019-05-25T20:42:47.040Z,1.20
2019-05-25T20:45:18.353Z,1.10
2019-05-25T20:47:49.288Z,1.20
2019-05-25T20:50:20.620Z,0.95
2019-05-25T20:52:51.357Z,1.05
2019-05-25T20:55:21.965Z,1.20
2019-05-25T20:57:52.678Z,1.20
2019-05-25T21:00:24.236Z,1.10
2019-05-25T21:03:05.387Z,1.17
2019-05-25T21:05:27.732Z,1.30
2019-05-25T21:07:58.302Z,1.37
2019-05-25T21:10:29.122Z,1.25
2019-05-25T21:12:59.808Z,1.40
2019-05-25T21:15:30.505Z,1.35
2019-05-25T21:18:03.461Z,1.45
2019-05-25T21:20:34.203Z,1.30
2019-05-25T21:23:05.417Z,1.40
2019-05-25T21:25:36.063Z,1.47
2019-05-25T21:28:06.738Z,1.52
2019-05-25T21:30:39.006Z,1.70
2019-05-25T21:33:09.620Z,1.55
2019-05-25T21:35:41.385Z,1.55
2019-05-25T21:38:12.069Z,1.37
2019-05-25T21:40:42.739Z,1.70
2019-05-25T21:43:13.508Z,1.47
2019-05-25T21:45:44.149Z,1.42
2019-05-25T21:48:14.787Z,1.45
2019-05-25T21:50:45.386Z,1.50
2019-05-25T21:53:16.049Z,1.27
2019-05-25T21:55:46.757Z,1.55
2019-05-25T21:58:17.398Z,1.55
2019-05-25T22:00:48.722Z,1.50
2019-05-25T22:03:19.839Z,1.50
2019-05-25T22:05:52.254Z,1.22
2019-05-25T22:08:23.397Z,1.20
2019-05-25T22:10:55.298Z,1.60
2019-05-25T22:13:28.869Z,1.50
2019-05-25T22:15:59.635Z,1.80
2019-05-25T22:18:31.166Z,1.65
2019-05-25T22:21:02.103Z,1.67
2019-05-25T22:23:33.447Z,1.70
2019-05-25T22:26:05.044Z,1.60
2019-05-25T22:28:44.841Z,1.40
2019-05-25T22:31:08.805Z,1.70
2019-05-25T22:33:40.548Z,1.40
2019-05-25T22:36:11.913Z,1.60
2019-05-25T22:38:43.224Z,1.42
2019-05-25T22:41:14.230Z,1.60
2019-05-25T22:43:45.126Z,1.70
2019-05-25T22:46:15.996Z,1.55
2019-05-25T22:48:46.943Z,1.47
2019-05-25T22:51:17.817Z,1.42
2019-05-25T22:53:49.735Z,1.80
2019-05-25T22:56:20.712Z,1.57
2019-05-25T22:58:51.581Z,1.70
2019-05-25T23:01:22.976Z,1.82
2019-05-25T23:03:54.612Z,1.60
2019-05-25T23:06:25.526Z,1.70
2019-05-25T23:08:56.398Z,1.70
2019-05-25T23:11:27.602Z,1.82
2019-05-25T23:13:58.892Z,1.87
2019-05-25T23:16:29.820Z,1.67
2019-05-25T23:19:00.791Z,1.70
2019-05-25T23:21:31.839Z,2.00
2019-05-25T23:24:03.430Z,1.90
2019-05-25T23:26:34.060Z,1.70
2019-05-25T23:29:04.627Z,1.80
2019-05-25T23:31:35.185Z,2.05
2019-05-25T23:34:06.221Z,1.95
2019-05-25T23:36:37.168Z,2.17
2019-05-25T23:39:08.433Z,2.30
2019-05-25T23:41:39.557Z,2.40
2019-05-25T23:44:10.564Z,2.47
2019-05-25T23:46:41.345Z,2.80
2019-05-25T23:49:13.085Z,2.60
2019-05-25T23:51:43.687Z,2.50
2019-05-25T23:54:14.299Z,2.30
2019-05-25T23:56:45.314Z,2.37
2019-05-25T23:59:15.861Z,2.15
